sensor_id;sensor_type;location;lat;lon;timestamp;P1;durP1;ratioP1;P2;durP2;ratioP2
46781;SDS011;32541;46.298;11.506;2024-02-15T00:00:21;4.60;;;1.53;;
46781;SDS011;32541;46.298;11.506;2024-02-15T00:02:47;2.17;;;0.80;;
46781;SDS011;32541;46.298;11.506;2024-02-15T00:05:13;1.30;;;0.53;;
46781;SDS011;32541;46.298;11.506;2024-02-15T00:07:42;1.10;;;0.40;;
46781;SDS011;32541;46.298;11.506;2024-02-15T00:10:09;0.90;;;0.60;;
46781;SDS011;32541;46.298;11.506;2024-02-15T00:12:34;5.00;;;2.37;;
46781;SDS011;32541;46.298;11.506;2024-02-15T00:15:00;2.27;;;0.90;;
46781;SDS011;32541;46.298;11.506;2024-02-15T00:17:27;0.80;;;0.30;;
46781;SDS011;32541;46.298;11.506;2024-02-15T00:19:54;1.57;;;0.40;;
46781;SDS011;32541;46.298;11.506;2024-02-15T00:22:20;1.70;;;0.80;;
46781;SDS011;32541;46.298;11.506;2024-02-15T00:24:46;3.40;;;1.20;;
46781;SDS011;32541;46.298;11.506;2024-02-15T00:27:15;2.23;;;0.80;;
46781;SDS011;32541;46.298;11.506;2024-02-15T00:29:41;1.37;;;0.60;;
46781;SDS011;32541;46.298;11.506;2024-02-15T00:32:06;1.03;;;0.40;;
46781;SDS011;32541;46.298;11.506;2024-02-15T00:34:32;1.07;;;0.33;;
46781;SDS011;32541;46.298;11.506;2024-02-15T00:36:58;1.37;;;0.43;;
46781;SDS011;32541;46.298;11.506;2024-02-15T00:39:23;2.17;;;0.60;;
46781;SDS011;32541;46.298;11.506;2024-02-15T00:41:49;0.40;;;0.40;;
46781;SDS011;32541;46.298;11.506;2024-02-15T00:44:15;1.63;;;0.87;;
46781;SDS011;32541;46.298;11.506;2024-02-15T00:46:40;1.57;;;0.80;;
46781;SDS011;32541;46.298;11.506;2024-02-15T00:49:06;0.90;;;0.37;;
46781;SDS011;32541;46.298;11.506;2024-02-15T00:51:32;1.17;;;0.43;;
46781;SDS011;32541;46.298;11.506;2024-02-15T00:54:01;0.93;;;0.27;;
46781;SDS011;32541;46.298;11.506;2024-02-15T00:56:27;2.20;;;0.87;;
46781;SDS011;32541;46.298;11.506;2024-02-15T00:58:54;1.53;;;0.50;;
46781;SDS011;32541;46.298;11.506;2024-02-15T01:01:20;3.00;;;0.77;;
46781;SDS011;32541;46.298;11.506;2024-02-15T01:03:46;0.80;;;0.30;;
46781;SDS011;32541;46.298;11.506;2024-02-15T01:06:11;1.17;;;0.50;;
46781;SDS011;32541;46.298;11.506;2024-02-15T01:08:37;1.03;;;0.57;;
46781;SDS011;32541;46.298;11.506;2024-02-15T01:11:02;2.47;;;0.60;;
46781;SDS011;32541;46.298;11.506;2024-02-15T01:13:28;1.23;;;0.50;;
46781;SDS011;32541;46.298;11.506;2024-02-15T01:15:53;1.70;;;0.97;;
46781;SDS011;32541;46.298;11.506;2024-02-15T01:18:18;0.97;;;0.40;;
46781;SDS011;32541;46.298;11.506;2024-02-15T01:20:44;4.73;;;0.60;;
46781;SDS011;32541;46.298;11.506;2024-02-15T01:23:10;9.63;;;2.43;;
46781;SDS011;32541;46.298;11.506;2024-02-15T01:25:35;5.87;;;1.50;;
46781;SDS011;32541;46.298;11.506;2024-02-15T01:28:01;2.50;;;0.87;;
46781;SDS011;32541;46.298;11.506;2024-02-15T01:30:27;2.07;;;0.87;;
46781;SDS011;32541;46.298;11.506;2024-02-15T01:32:53;2.43;;;0.87;;
46781;SDS011;32541;46.298;11.506;2024-02-15T01:35:19;1.13;;;0.50;;
46781;SDS011;32541;46.298;11.506;2024-02-15T01:37:44;1.27;;;0.67;;
46781;SDS011;32541;46.298;11.506;2024-02-15T01:40:10;2.23;;;0.47;;
46781;SDS011;32541;46.298;11.506;2024-02-15T01:42:37;1.67;;;0.67;;
46781;SDS011;32541;46.298;11.506;2024-02-15T01:45:04;1.97;;;0.37;;
46781;SDS011;32541;46.298;11.506;2024-02-15T01:47:29;1.60;;;0.47;;
46781;SDS011;32541;46.298;11.506;2024-02-15T01:49:55;1.20;;;0.40;;
46781;SDS011;32541;46.298;11.506;2024-02-15T01:52:21;1.43;;;0.53;;
46781;SDS011;32541;46.298;11.506;2024-02-15T01:54:47;1.37;;;0.53;;
46781;SDS011;32541;46.298;11.506;2024-02-15T01:57:13;5.80;;;0.70;;
46781;SDS011;32541;46.298;11.506;2024-02-15T01:59:39;0.93;;;0.60;;
46781;SDS011;32541;46.298;11.506;2024-02-15T02:02:04;1.63;;;0.50;;
46781;SDS011;32541;46.298;11.506;2024-02-15T02:04:36;1.10;;;0.50;;
46781;SDS011;32541;46.298;11.506;2024-02-15T02:07:03;1.30;;;0.50;;
46781;SDS011;32541;46.298;11.506;2024-02-15T02:09:28;1.53;;;0.60;;
46781;SDS011;32541;46.298;11.506;2024-02-15T02:11:54;1.07;;;0.50;;
46781;SDS011;32541;46.298;11.506;2024-02-15T02:14:19;0.33;;;0.30;;
46781;SDS011;32541;46.298;11.506;2024-02-15T02:16:45;1.47;;;0.40;;
46781;SDS011;32541;46.298;11.506;2024-02-15T02:19:11;0.47;;;0.30;;
46781;SDS011;32541;46.298;11.506;2024-02-15T02:21:37;3.30;;;0.50;;
46781;SDS011;32541;46.298;11.506;2024-02-15T02:24:04;2.03;;;0.30;;
46781;SDS011;32541;46.298;11.506;2024-02-15T02:26:38;0.30;;;0.20;;
46781;SDS011;32541;46.298;11.506;2024-02-15T02:29:03;1.10;;;0.40;;
46781;SDS011;32541;46.298;11.506;2024-02-15T02:31:35;1.97;;;0.50;;
46781;SDS011;32541;46.298;11.506;2024-02-15T02:34:01;1.60;;;0.80;;
46781;SDS011;32541;46.298;11.506;2024-02-15T02:36:27;1.00;;;0.30;;
46781;SDS011;32541;46.298;11.506;2024-02-15T02:38:54;1.67;;;0.37;;
46781;SDS011;32541;46.298;11.506;2024-02-15T02:41:20;0.83;;;0.30;;
46781;SDS011;32541;46.298;11.506;2024-02-15T02:43:46;4.97;;;0.50;;
46781;SDS011;32541;46.298;11.506;2024-02-15T02:46:12;0.93;;;0.37;;
46781;SDS011;32541;46.298;11.506;2024-02-15T02:48:38;0.93;;;0.30;;
46781;SDS011;32541;46.298;11.506;2024-02-15T02:51:04;1.53;;;0.60;;
46781;SDS011;32541;46.298;11.506;2024-02-15T02:53:29;1.13;;;0.50;;
46781;SDS011;32541;46.298;11.506;2024-02-15T02:55:58;1.00;;;0.40;;
46781;SDS011;32541;46.298;11.506;2024-02-15T02:58:24;0.50;;;0.23;;
46781;SDS011;32541;46.298;11.506;2024-02-15T03:00:49;0.97;;;0.20;;
46781;SDS011;32541;46.298;11.506;2024-02-15T03:03:16;0.90;;;0.20;;
46781;SDS011;32541;46.298;11.506;2024-02-15T03:05:42;0.50;;;0.20;;
46781;SDS011;32541;46.298;11.506;2024-02-15T03:08:13;0.63;;;0.20;;
46781;SDS011;32541;46.298;11.506;2024-02-15T03:10:39;0.37;;;0.20;;
46781;SDS011;32541;46.298;11.506;2024-02-15T03:13:05;0.83;;;0.20;;
46781;SDS011;32541;46.298;11.506;2024-02-15T03:15:32;0.50;;;0.30;;
46781;SDS011;32541;46.298;11.506;2024-02-15T03:17:58;0.40;;;0.20;;
46781;SDS011;32541;46.298;11.506;2024-02-15T03:20:24;0.57;;;0.37;;
46781;SDS011;32541;46.298;11.506;2024-02-15T03:22:50;1.10;;;0.50;;
46781;SDS011;32541;46.298;11.506;2024-02-15T03:25:19;0.47;;;0.30;;
46781;SDS011;32541;46.298;11.506;2024-02-15T03:27:48;2.23;;;0.83;;
46781;SDS011;32541;46.298;11.506;2024-02-15T03:30:14;0.30;;;0.30;;
46781;SDS011;32541;46.298;11.506;2024-02-15T03:32:39;0.80;;;0.40;;
46781;SDS011;32541;46.298;11.506;2024-02-15T03:35:05;0.50;;;0.30;;
46781;SDS011;32541;46.298;11.506;2024-02-15T03:37:31;1.03;;;0.40;;
46781;SDS011;32541;46.298;11.506;2024-02-15T03:40:00;0.50;;;0.40;;
46781;SDS011;32541;46.298;11.506;2024-02-15T03:42:25;1.07;;;0.50;;
46781;SDS011;32541;46.298;11.506;2024-02-15T03:44:51;2.00;;;0.40;;
46781;SDS011;32541;46.298;11.506;2024-02-15T03:47:16;1.03;;;0.53;;
46781;SDS011;32541;46.298;11.506;2024-02-15T03:49:42;0.70;;;0.33;;
46781;SDS011;32541;46.298;11.506;2024-02-15T03:52:07;0.53;;;0.23;;
46781;SDS011;32541;46.298;11.506;2024-02-15T03:54:35;0.70;;;0.30;;
46781;SDS011;32541;46.298;11.506;2024-02-15T03:57:01;0.50;;;0.20;;
46781;SDS011;32541;46.298;11.506;2024-02-15T03:59:26;1.00;;;0.40;;
46781;SDS011;32541;46.298;11.506;2024-02-15T04:01:55;0.93;;;0.30;;
46781;SDS011;32541;46.298;11.506;2024-02-15T04:04:21;0.47;;;0.20;;
46781;SDS011;32541;46.298;11.506;2024-02-15T04:06:50;0.87;;;0.20;;
46781;SDS011;32541;46.298;11.506;2024-02-15T04:09:16;0.30;;;0.20;;
46781;SDS011;32541;46.298;11.506;2024-02-15T04:11:46;0.63;;;0.20;;
46781;SDS011;32541;46.298;11.506;2024-02-15T04:14:15;1.50;;;0.40;;
46781;SDS011;32541;46.298;11.506;2024-02-15T04:16:41;0.53;;;0.20;;
46781;SDS011;32541;46.298;11.506;2024-02-15T04:19:06;0.97;;;0.30;;
46781;SDS011;32541;46.298;11.506;2024-02-15T04:21:32;0.60;;;0.30;;
46781;SDS011;32541;46.298;11.506;2024-02-15T04:23:58;6.20;;;3.13;;
46781;SDS011;32541;46.298;11.506;2024-02-15T04:26:24;5.73;;;2.57;;
46781;SDS011;32541;46.298;11.506;2024-02-15T04:28:55;8.57;;;4.70;;
46781;SDS011;32541;46.298;11.506;2024-02-15T04:31:20;7.73;;;4.27;;
46781;SDS011;32541;46.298;11.506;2024-02-15T04:33:51;2.27;;;1.10;;
46781;SDS011;32541;46.298;11.506;2024-02-15T04:36:20;1.30;;;0.67;;
46781;SDS011;32541;46.298;11.506;2024-02-15T04:38:51;1.03;;;0.53;;
46781;SDS011;32541;46.298;11.506;2024-02-15T04:41:17;1.33;;;0.60;;
46781;SDS011;32541;46.298;11.506;2024-02-15T04:43:51;1.67;;;1.10;;
46781;SDS011;32541;46.298;11.506;2024-02-15T04:46:19;2.70;;;1.60;;
46781;SDS011;32541;46.298;11.506;2024-02-15T04:48:49;0.90;;;0.70;;
46781;SDS011;32541;46.298;11.506;2024-02-15T04:51:15;5.50;;;2.63;;
46781;SDS011;32541;46.298;11.506;2024-02-15T04:53:44;0.70;;;0.43;;
46781;SDS011;32541;46.298;11.506;2024-02-15T04:56:11;0.30;;;0.20;;
46781;SDS011;32541;46.298;11.506;2024-02-15T04:58:41;1.20;;;0.70;;
46781;SDS011;32541;46.298;11.506;2024-02-15T05:01:13;0.97;;;0.37;;
46781;SDS011;32541;46.298;11.506;2024-02-15T05:03:39;0.73;;;0.30;;
46781;SDS011;32541;46.298;11.506;2024-02-15T05:06:05;1.60;;;0.50;;
46781;SDS011;32541;46.298;11.506;2024-02-15T05:08:30;0.50;;;0.40;;
46781;SDS011;32541;46.298;11.506;2024-02-15T05:10:57;0.70;;;0.43;;
46781;SDS011;32541;46.298;11.506;2024-02-15T05:13:25;1.90;;;0.50;;
46781;SDS011;32541;46.298;11.506;2024-02-15T05:15:51;0.93;;;0.80;;
46781;SDS011;32541;46.298;11.506;2024-02-15T05:18:16;15.33;;;8.87;;
46781;SDS011;32541;46.298;11.506;2024-02-15T05:20:42;3.17;;;1.50;;
46781;SDS011;32541;46.298;11.506;2024-02-15T05:23:07;3.10;;;1.50;;
46781;SDS011;32541;46.298;11.506;2024-02-15T05:25:33;1.83;;;0.70;;
46781;SDS011;32541;46.298;11.506;2024-02-15T05:28:00;2.97;;;0.60;;
46781;SDS011;32541;46.298;11.506;2024-02-15T05:30:25;3.23;;;0.93;;
46781;SDS011;32541;46.298;11.506;2024-02-15T05:32:51;1.07;;;0.70;;
46781;SDS011;32541;46.298;11.506;2024-02-15T05:35:18;2.50;;;1.00;;
46781;SDS011;32541;46.298;11.506;2024-02-15T05:37:43;1.33;;;0.87;;
46781;SDS011;32541;46.298;11.506;2024-02-15T05:40:09;17.90;;;7.93;;
46781;SDS011;32541;46.298;11.506;2024-02-15T05:42:40;7.43;;;4.20;;
46781;SDS011;32541;46.298;11.506;2024-02-15T05:47:53;17.67;;;8.40;;
46781;SDS011;32541;46.298;11.506;2024-02-15T05:50:19;3.37;;;1.57;;
46781;SDS011;32541;46.298;11.506;2024-02-15T05:52:46;5.30;;;2.60;;
46781;SDS011;32541;46.298;11.506;2024-02-15T05:55:13;3.67;;;1.83;;
46781;SDS011;32541;46.298;11.506;2024-02-15T05:57:45;4.53;;;1.77;;
46781;SDS011;32541;46.298;11.506;2024-02-15T06:00:10;3.60;;;2.40;;
46781;SDS011;32541;46.298;11.506;2024-02-15T06:02:37;10.20;;;5.80;;
46781;SDS011;32541;46.298;11.506;2024-02-15T06:05:03;4.53;;;2.37;;
46781;SDS011;32541;46.298;11.506;2024-02-15T06:07:32;2.10;;;1.23;;
46781;SDS011;32541;46.298;11.506;2024-02-15T06:09:58;1.17;;;0.50;;
46781;SDS011;32541;46.298;11.506;2024-02-15T06:12:28;1.00;;;0.50;;
46781;SDS011;32541;46.298;11.506;2024-02-15T06:14:53;0.87;;;0.53;;
46781;SDS011;32541;46.298;11.506;2024-02-15T06:17:19;3.80;;;1.60;;
46781;SDS011;32541;46.298;11.506;2024-02-15T06:19:44;6.07;;;2.73;;
46781;SDS011;32541;46.298;11.506;2024-02-15T06:22:09;5.47;;;2.80;;
46781;SDS011;32541;46.298;11.506;2024-02-15T06:24:38;6.93;;;4.40;;
46781;SDS011;32541;46.298;11.506;2024-02-15T06:27:04;4.93;;;2.30;;
46781;SDS011;32541;46.298;11.506;2024-02-15T06:29:30;3.73;;;1.80;;
46781;SDS011;32541;46.298;11.506;2024-02-15T06:32:14;7.83;;;4.30;;
46781;SDS011;32541;46.298;11.506;2024-02-15T06:34:58;4.53;;;1.23;;
46781;SDS011;32541;46.298;11.506;2024-02-15T06:37:42;6.13;;;3.00;;
46781;SDS011;32541;46.298;11.506;2024-02-15T06:40:26;5.37;;;2.10;;
46781;SDS011;32541;46.298;11.506;2024-02-15T06:42:54;7.80;;;3.40;;
46781;SDS011;32541;46.298;11.506;2024-02-15T06:45:20;3.93;;;2.60;;
46781;SDS011;32541;46.298;11.506;2024-02-15T06:47:45;12.13;;;7.90;;
46781;SDS011;32541;46.298;11.506;2024-02-15T06:50:11;4.43;;;2.70;;
46781;SDS011;32541;46.298;11.506;2024-02-15T06:52:37;3.67;;;2.37;;
46781;SDS011;32541;46.298;11.506;2024-02-15T06:55:06;5.67;;;3.40;;
46781;SDS011;32541;46.298;11.506;2024-02-15T06:57:33;13.27;;;6.90;;
46781;SDS011;32541;46.298;11.506;2024-02-15T07:00:03;13.00;;;5.30;;
46781;SDS011;32541;46.298;11.506;2024-02-15T07:02:32;14.47;;;6.17;;
46781;SDS011;32541;46.298;11.506;2024-02-15T07:04:58;15.53;;;8.80;;
46781;SDS011;32541;46.298;11.506;2024-02-15T07:07:23;12.17;;;7.27;;
46781;SDS011;32541;46.298;11.506;2024-02-15T07:09:49;7.83;;;5.47;;
46781;SDS011;32541;46.298;11.506;2024-02-15T07:12:14;9.17;;;3.47;;
46781;SDS011;32541;46.298;11.506;2024-02-15T07:14:40;11.30;;;2.90;;
46781;SDS011;32541;46.298;11.506;2024-02-15T07:17:05;23.80;;;9.20;;
46781;SDS011;32541;46.298;11.506;2024-02-15T07:19:31;12.87;;;5.90;;
46781;SDS011;32541;46.298;11.506;2024-02-15T07:22:01;8.43;;;3.50;;
46781;SDS011;32541;46.298;11.506;2024-02-15T07:24:27;6.90;;;2.27;;
46781;SDS011;32541;46.298;11.506;2024-02-15T07:26:53;6.23;;;2.27;;
46781;SDS011;32541;46.298;11.506;2024-02-15T07:29:20;5.50;;;2.90;;
46781;SDS011;32541;46.298;11.506;2024-02-15T07:31:48;4.60;;;2.80;;
46781;SDS011;32541;46.298;11.506;2024-02-15T07:34:14;2.60;;;1.20;;
46781;SDS011;32541;46.298;11.506;2024-02-15T07:36:39;1.87;;;1.10;;
46781;SDS011;32541;46.298;11.506;2024-02-15T07:39:07;3.77;;;1.70;;
46781;SDS011;32541;46.298;11.506;2024-02-15T07:41:37;8.27;;;1.70;;
46781;SDS011;32541;46.298;11.506;2024-02-15T07:44:03;3.00;;;1.43;;
46781;SDS011;32541;46.298;11.506;2024-02-15T07:46:29;2.20;;;1.40;;
46781;SDS011;32541;46.298;11.506;2024-02-15T07:48:54;3.10;;;1.13;;
46781;SDS011;32541;46.298;11.506;2024-02-15T07:51:20;2.10;;;1.38;;
46781;SDS011;32541;46.298;11.506;2024-02-15T07:53:47;4.53;;;2.72;;
46781;SDS011;32541;46.298;11.506;2024-02-15T07:56:13;6.32;;;3.90;;
46781;SDS011;32541;46.298;11.506;2024-02-15T07:58:41;4.40;;;2.70;;
46781;SDS011;32541;46.298;11.506;2024-02-15T08:01:16;4.45;;;2.97;;
46781;SDS011;32541;46.298;11.506;2024-02-15T08:03:41;7.53;;;4.43;;
46781;SDS011;32541;46.298;11.506;2024-02-15T08:06:13;8.30;;;3.33;;
46781;SDS011;32541;46.298;11.506;2024-02-15T08:08:41;2.13;;;1.50;;
46781;SDS011;32541;46.298;11.506;2024-02-15T08:11:11;3.42;;;1.30;;
46781;SDS011;32541;46.298;11.506;2024-02-15T08:16:09;1.63;;;0.95;;
46781;SDS011;32541;46.298;11.506;2024-02-15T08:18:36;5.50;;;4.00;;
46781;SDS011;32541;46.298;11.506;2024-02-15T08:21:02;8.82;;;5.60;;
46781;SDS011;32541;46.298;11.506;2024-02-15T08:23:29;5.13;;;2.95;;
46781;SDS011;32541;46.298;11.506;2024-02-15T08:25:54;1.73;;;1.00;;
46781;SDS011;32541;46.298;11.506;2024-02-15T08:28:20;2.55;;;0.80;;
46781;SDS011;32541;46.298;11.506;2024-02-15T08:30:45;2.90;;;1.33;;
46781;SDS011;32541;46.298;11.506;2024-02-15T08:33:15;2.60;;;1.10;;
46781;SDS011;32541;46.298;11.506;2024-02-15T08:35:40;5.45;;;2.13;;
46781;SDS011;32541;46.298;11.506;2024-02-15T08:38:06;3.08;;;0.90;;
46781;SDS011;32541;46.298;11.506;2024-02-15T08:40:34;14.20;;;3.13;;
46781;SDS011;32541;46.298;11.506;2024-02-15T08:43:00;9.90;;;4.65;;
46781;SDS011;32541;46.298;11.506;2024-02-15T08:45:26;10.40;;;4.68;;
46781;SDS011;32541;46.298;11.506;2024-02-15T08:47:51;10.07;;;3.55;;
46781;SDS011;32541;46.298;11.506;2024-02-15T08:50:19;6.50;;;4.32;;
46781;SDS011;32541;46.298;11.506;2024-02-15T08:52:47;6.53;;;3.30;;
46781;SDS011;32541;46.298;11.506;2024-02-15T08:55:12;6.35;;;3.78;;
46781;SDS011;32541;46.298;11.506;2024-02-15T08:57:42;6.97;;;3.28;;
46781;SDS011;32541;46.298;11.506;2024-02-15T09:00:09;9.68;;;5.55;;
46781;SDS011;32541;46.298;11.506;2024-02-15T09:02:38;7.55;;;3.10;;
46781;SDS011;32541;46.298;11.506;2024-02-15T09:05:13;5.70;;;1.90;;
46781;SDS011;32541;46.298;11.506;2024-02-15T09:07:42;3.08;;;1.35;;
46781;SDS011;32541;46.298;11.506;2024-02-15T09:10:12;3.08;;;1.48;;
46781;SDS011;32541;46.298;11.506;2024-02-15T09:12:39;2.40;;;1.20;;
46781;SDS011;32541;46.298;11.506;2024-02-15T09:15:08;5.60;;;1.20;;
46781;SDS011;32541;46.298;11.506;2024-02-15T09:17:35;4.95;;;2.50;;
46781;SDS011;32541;46.298;11.506;2024-02-15T09:20:08;3.67;;;2.80;;
46781;SDS011;32541;46.298;11.506;2024-02-15T09:22:40;2.38;;;1.30;;
46781;SDS011;32541;46.298;11.506;2024-02-15T09:25:15;6.85;;;1.30;;
46781;SDS011;32541;46.298;11.506;2024-02-15T09:27:41;9.45;;;3.63;;
46781;SDS011;32541;46.298;11.506;2024-02-15T09:30:07;5.60;;;2.30;;
46781;SDS011;32541;46.298;11.506;2024-02-15T09:32:35;5.47;;;2.67;;
46781;SDS011;32541;46.298;11.506;2024-02-15T09:35:04;3.63;;;2.67;;
46781;SDS011;32541;46.298;11.506;2024-02-15T09:37:36;3.60;;;3.08;;
46781;SDS011;32541;46.298;11.506;2024-02-15T09:40:09;5.32;;;2.97;;
46781;SDS011;32541;46.298;11.506;2024-02-15T09:42:36;5.38;;;2.83;;
46781;SDS011;32541;46.298;11.506;2024-02-15T09:45:04;13.90;;;3.15;;
46781;SDS011;32541;46.298;11.506;2024-02-15T09:47:32;9.00;;;3.38;;
46781;SDS011;32541;46.298;11.506;2024-02-15T09:50:01;21.75;;;4.60;;
46781;SDS011;32541;46.298;11.506;2024-02-15T09:52:28;4.70;;;2.10;;
46781;SDS011;32541;46.298;11.506;2024-02-15T09:54:57;3.50;;;2.47;;
46781;SDS011;32541;46.298;11.506;2024-02-15T09:57:23;3.08;;;2.40;;
46781;SDS011;32541;46.298;11.506;2024-02-15T09:59:49;3.75;;;2.78;;
46781;SDS011;32541;46.298;11.506;2024-02-15T10:02:15;3.95;;;2.33;;
46781;SDS011;32541;46.298;11.506;2024-02-15T10:04:41;4.75;;;2.60;;
46781;SDS011;32541;46.298;11.506;2024-02-15T10:07:07;5.88;;;1.83;;
46781;SDS011;32541;46.298;11.506;2024-02-15T10:09:34;5.80;;;3.50;;
46781;SDS011;32541;46.298;11.506;2024-02-15T10:12:02;3.80;;;1.73;;
46781;SDS011;32541;46.298;11.506;2024-02-15T10:14:31;4.65;;;1.48;;
46781;SDS011;32541;46.298;11.506;2024-02-15T10:17:00;2.03;;;1.20;;
46781;SDS011;32541;46.298;11.506;2024-02-15T10:22:06;2.58;;;1.42;;
46781;SDS011;32541;46.298;11.506;2024-02-15T10:24:32;4.10;;;1.20;;
46781;SDS011;32541;46.298;11.506;2024-02-15T10:27:01;1.27;;;0.85;;
46781;SDS011;32541;46.298;11.506;2024-02-15T10:29:29;1.98;;;0.85;;
46781;SDS011;32541;46.298;11.506;2024-02-15T10:31:56;1.10;;;0.68;;
46781;SDS011;32541;46.298;11.506;2024-02-15T10:34:23;3.45;;;1.33;;
46781;SDS011;32541;46.298;11.506;2024-02-15T10:36:52;1.75;;;0.80;;
46781;SDS011;32541;46.298;11.506;2024-02-15T10:39:20;3.38;;;0.90;;
46781;SDS011;32541;46.298;11.506;2024-02-15T10:41:54;1.05;;;0.65;;
46781;SDS011;32541;46.298;11.506;2024-02-15T10:44:20;2.75;;;0.70;;
46781;SDS011;32541;46.298;11.506;2024-02-15T10:46:48;1.27;;;0.68;;
46781;SDS011;32541;46.298;11.506;2024-02-15T10:49:20;0.70;;;0.43;;
46781;SDS011;32541;46.298;11.506;2024-02-15T10:51:50;1.55;;;0.40;;
46781;SDS011;32541;46.298;11.506;2024-02-15T10:57:12;2.08;;;0.70;;
46781;SDS011;32541;46.298;11.506;2024-02-15T10:59:40;0.63;;;0.40;;
46781;SDS011;32541;46.298;11.506;2024-02-15T11:04:42;1.17;;;0.47;;
46781;SDS011;32541;46.298;11.506;2024-02-15T11:07:10;0.82;;;0.60;;
46781;SDS011;32541;46.298;11.506;2024-02-15T11:09:37;0.82;;;0.47;;
46781;SDS011;32541;46.298;11.506;2024-02-15T11:12:05;0.77;;;0.43;;
46781;SDS011;32541;46.298;11.506;2024-02-15T11:14:31;3.67;;;0.80;;
46781;SDS011;32541;46.298;11.506;2024-02-15T11:17:00;2.40;;;1.00;;
46781;SDS011;32541;46.298;11.506;2024-02-15T11:22:00;2.13;;;0.90;;
46781;SDS011;32541;46.298;11.506;2024-02-15T11:24:31;2.83;;;0.70;;
46781;SDS011;32541;46.298;11.506;2024-02-15T11:27:00;1.08;;;0.55;;
46781;SDS011;32541;46.298;11.506;2024-02-15T11:35:04;2.15;;;0.70;;
46781;SDS011;32541;46.298;11.506;2024-02-15T11:43:06;1.25;;;0.73;;
46781;SDS011;32541;46.298;11.506;2024-02-15T11:45:33;1.92;;;1.13;;
46781;SDS011;32541;46.298;11.506;2024-02-15T11:48:03;1.60;;;0.70;;
46781;SDS011;32541;46.298;11.506;2024-02-15T11:50:36;1.08;;;0.77;;
46781;SDS011;32541;46.298;11.506;2024-02-15T11:53:03;1.17;;;0.73;;
46781;SDS011;32541;46.298;11.506;2024-02-15T11:55:34;2.28;;;1.00;;
46781;SDS011;32541;46.298;11.506;2024-02-15T11:58:00;1.80;;;1.00;;
46781;SDS011;32541;46.298;11.506;2024-02-15T12:00:41;1.60;;;0.70;;
46781;SDS011;32541;46.298;11.506;2024-02-15T12:03:25;0.82;;;0.50;;
46781;SDS011;32541;46.298;11.506;2024-02-15T12:06:10;1.40;;;0.73;;
46781;SDS011;32541;46.298;11.506;2024-02-15T12:08:54;1.65;;;0.75;;
46781;SDS011;32541;46.298;11.506;2024-02-15T12:11:38;1.70;;;0.73;;
46781;SDS011;32541;46.298;11.506;2024-02-15T12:14:22;1.48;;;0.70;;
46781;SDS011;32541;46.298;11.506;2024-02-15T12:17:10;1.15;;;0.77;;
46781;SDS011;32541;46.298;11.506;2024-02-15T12:19:56;2.63;;;0.90;;
46781;SDS011;32541;46.298;11.506;2024-02-15T12:24:57;0.60;;;0.40;;
46781;SDS011;32541;46.298;11.506;2024-02-15T12:27:25;0.95;;;0.50;;
46781;SDS011;32541;46.298;11.506;2024-02-15T12:32:20;0.98;;;0.60;;
46781;SDS011;32541;46.298;11.506;2024-02-15T12:34:52;1.60;;;0.80;;
46781;SDS011;32541;46.298;11.506;2024-02-15T12:37:19;0.63;;;0.40;;
46781;SDS011;32541;46.298;11.506;2024-02-15T12:39:48;0.95;;;0.55;;
46781;SDS011;32541;46.298;11.506;2024-02-15T12:42:15;1.17;;;0.70;;
46781;SDS011;32541;46.298;11.506;2024-02-15T12:44:45;1.42;;;0.70;;
46781;SDS011;32541;46.298;11.506;2024-02-15T12:47:21;0.80;;;0.50;;
46781;SDS011;32541;46.298;11.506;2024-02-15T12:49:47;1.38;;;0.73;;
46781;SDS011;32541;46.298;11.506;2024-02-15T12:55:07;1.02;;;0.68;;
46781;SDS011;32541;46.298;11.506;2024-02-15T12:57:33;1.98;;;0.40;;
46781;SDS011;32541;46.298;11.506;2024-02-15T12:59:58;1.00;;;0.57;;
46781;SDS011;32541;46.298;11.506;2024-02-15T13:02:25;0.98;;;0.60;;
46781;SDS011;32541;46.298;11.506;2024-02-15T13:04:56;0.93;;;0.60;;
46781;SDS011;32541;46.298;11.506;2024-02-15T13:07:22;1.83;;;0.60;;
46781;SDS011;32541;46.298;11.506;2024-02-15T13:09:48;1.30;;;0.57;;
46781;SDS011;32541;46.298;11.506;2024-02-15T13:12:14;0.73;;;0.50;;
46781;SDS011;32541;46.298;11.506;2024-02-15T13:14:40;0.77;;;0.50;;
46781;SDS011;32541;46.298;11.506;2024-02-15T13:17:05;1.80;;;0.80;;
46781;SDS011;32541;46.298;11.506;2024-02-15T13:19:31;0.57;;;0.40;;
46781;SDS011;32541;46.298;11.506;2024-02-15T13:21:57;3.10;;;0.60;;
46781;SDS011;32541;46.298;11.506;2024-02-15T13:24:23;1.27;;;0.73;;
46781;SDS011;32541;46.298;11.506;2024-02-15T13:26:51;1.38;;;0.63;;
46781;SDS011;32541;46.298;11.506;2024-02-15T13:29:16;1.10;;;0.47;;
46781;SDS011;32541;46.298;11.506;2024-02-15T13:31:42;1.33;;;0.60;;
46781;SDS011;32541;46.298;11.506;2024-02-15T13:34:08;0.90;;;0.50;;
46781;SDS011;32541;46.298;11.506;2024-02-15T13:36:34;1.27;;;0.63;;
46781;SDS011;32541;46.298;11.506;2024-02-15T13:41:46;0.88;;;0.50;;
46781;SDS011;32541;46.298;11.506;2024-02-15T13:44:12;0.98;;;0.55;;
46781;SDS011;32541;46.298;11.506;2024-02-15T13:46:39;1.02;;;0.50;;
46781;SDS011;32541;46.298;11.506;2024-02-15T13:49:05;1.17;;;0.60;;
46781;SDS011;32541;46.298;11.506;2024-02-15T13:51:30;0.80;;;0.50;;
46781;SDS011;32541;46.298;11.506;2024-02-15T13:53:56;0.85;;;0.50;;
46781;SDS011;32541;46.298;11.506;2024-02-15T13:56:21;2.83;;;0.80;;
46781;SDS011;32541;46.298;11.506;2024-02-15T13:58:47;2.20;;;0.70;;
46781;SDS011;32541;46.298;11.506;2024-02-15T14:01:13;1.08;;;0.70;;
46781;SDS011;32541;46.298;11.506;2024-02-15T14:03:39;2.85;;;0.63;;
46781;SDS011;32541;46.298;11.506;2024-02-15T14:06:06;1.15;;;0.50;;
46781;SDS011;32541;46.298;11.506;2024-02-15T14:08:32;2.00;;;0.60;;
46781;SDS011;32541;46.298;11.506;2024-02-15T14:10:57;2.13;;;0.60;;
46781;SDS011;32541;46.298;11.506;2024-02-15T14:13:23;1.48;;;0.60;;
46781;SDS011;32541;46.298;11.506;2024-02-15T14:15:50;0.95;;;0.50;;
46781;SDS011;32541;46.298;11.506;2024-02-15T14:18:16;0.93;;;0.55;;
46781;SDS011;32541;46.298;11.506;2024-02-15T14:20:44;1.40;;;0.50;;
46781;SDS011;32541;46.298;11.506;2024-02-15T14:23:12;1.15;;;0.60;;
46781;SDS011;32541;46.298;11.506;2024-02-15T14:25:40;0.80;;;0.40;;
46781;SDS011;32541;46.298;11.506;2024-02-15T14:28:05;2.63;;;0.60;;
46781;SDS011;32541;46.298;11.506;2024-02-15T14:30:34;1.50;;;0.40;;
46781;SDS011;32541;46.298;11.506;2024-02-15T14:33:18;1.40;;;0.57;;
46781;SDS011;32541;46.298;11.506;2024-02-15T14:35:44;3.05;;;0.60;;
46781;SDS011;32541;46.298;11.506;2024-02-15T14:38:12;0.45;;;0.30;;
46781;SDS011;32541;46.298;11.506;2024-02-15T14:40:39;0.80;;;0.40;;
46781;SDS011;32541;46.298;11.506;2024-02-15T14:43:19;1.55;;;0.80;;
46781;SDS011;32541;46.298;11.506;2024-02-15T14:45:46;2.53;;;0.70;;
46781;SDS011;32541;46.298;11.506;2024-02-15T14:48:12;1.90;;;0.57;;
46781;SDS011;32541;46.298;11.506;2024-02-15T14:50:39;3.63;;;0.70;;
46781;SDS011;32541;46.298;11.506;2024-02-15T14:53:07;0.82;;;0.50;;
46781;SDS011;32541;46.298;11.506;2024-02-15T14:55:34;0.45;;;0.40;;
46781;SDS011;32541;46.298;11.506;2024-02-15T14:58:00;1.83;;;0.70;;
46781;SDS011;32541;46.298;11.506;2024-02-15T15:00:26;0.73;;;0.43;;
46781;SDS011;32541;46.298;11.506;2024-02-15T15:02:52;1.48;;;0.50;;
46781;SDS011;32541;46.298;11.506;2024-02-15T15:05:22;3.50;;;0.60;;
46781;SDS011;32541;46.298;11.506;2024-02-15T15:08:07;2.15;;;0.50;;
46781;SDS011;32541;46.298;11.506;2024-02-15T15:10:51;1.55;;;0.80;;
46781;SDS011;32541;46.298;11.506;2024-02-15T15:13:35;1.83;;;0.75;;